PWSweather.com
Personal Weather Stations
Station Observations
N3SME
Betz Creek, Wilmington Island, Savannah, GA 31410

Betz Creek, Wilmington IslandSavannah, GA 31410

Lat: 32.023021, Lon: -80.959452

Elevation: 15

Station Type: Ambient

High Low Average
Temperature 54.8°F12.7°C 54.8°F12.7°C 54.8°F12.7°C
Dew Point 45.7°F7.6°C 45.7°F7.6°C 45.7°F7.6°C
Winds 10.5 mph 16.9 kmh 10.5 mph 16.9 kmh 10.0 mph E16.1 kmh E
Wind Gusts 29.8 mph48.0 kmh 29.8 mph48.0 kmh 30.0 mph48.3 kmh
Humidity 72% 72% 72%
Pressure 30.25 in1024.4 mb 30.25 in1024.4 mb -
Precipitation 0.00 in0.0 mm - -
Hour Temp Dew Point Humidity Winds Wind Gusts Pressure Precip Precip Rate Daily Precip Total
12:12 AM 55.3°F12.9°C 45.1°F7.3°C 69% 10.5 mph ENE16.9 kmh ENE 31.5 mph50.7 kmh 30.25 in1024.4 mb 0.00 in0.0 mm 0.00 in/hr0.0 mm/hr 0.00 in0.0 mm
12:27 AM 54.9°F12.7°C 44.7°F7.1°C 69% 6.9 mph E11.1 kmh E 28.0 mph45.1 kmh 30.26 in1024.7 mb 0.00 in0.0 mm 0.00 in/hr0.0 mm/hr 0.00 in0.0 mm
12:42 AM 54.8°F12.7°C 45.0°F7.2°C 70% 8.7 mph E14.0 kmh E 28.0 mph45.1 kmh 30.25 in1024.4 mb 0.00 in0.0 mm 0.00 in/hr0.0 mm/hr 0.00 in0.0 mm
12:57 AM 54.6°F12.6°C 44.8°F7.1°C 70% 8.7 mph E14.0 kmh E 24.6 mph39.6 kmh 30.25 in1024.4 mb 0.00 in0.0 mm 0.00 in/hr0.0 mm/hr 0.00 in0.0 mm
01:12 AM 54.8°F12.7°C 45.7°F7.6°C 72% 10.5 mph E16.9 kmh E 29.8 mph48.0 kmh 30.25 in1024.4 mb 0.00 in0.0 mm 0.00 in/hr0.0 mm/hr 0.00 in0.0 mm
01:27 AM 54.6°F12.6°C 45.2°F7.3°C 71% 8.7 mph ENE14.0 kmh ENE 21.0 mph33.8 kmh 30.25 in1024.4 mb 0.00 in0.0 mm 0.00 in/hr0.0 mm/hr 0.00 in0.0 mm
01:42 AM 54.6°F12.6°C 45.6°F7.6°C 72% 6.9 mph E11.1 kmh E 26.2 mph42.2 kmh 30.25 in1024.4 mb 0.00 in0.0 mm 0.00 in/hr0.0 mm/hr 0.00 in0.0 mm
01:57 AM 54.2°F12.3°C 45.6°F7.6°C 73% 1.8 mph NE2.9 kmh NE 19.2 mph30.9 kmh 30.25 in1024.4 mb 0.00 in0.0 mm 0.00 in/hr0.0 mm/hr 0.00 in0.0 mm
02:12 AM 54.0°F12.2°C 45.8°F7.7°C 74% 6.9 mph ENE11.1 kmh ENE 21.0 mph33.8 kmh 30.25 in1024.4 mb 0.00 in0.0 mm 0.00 in/hr0.0 mm/hr 0.00 in0.0 mm
02:27 AM 54.2°F12.3°C 46.0°F7.8°C 74% 10.5 mph NE16.9 kmh NE 29.8 mph48.0 kmh 30.24 in1024.0 mb 0.00 in0.0 mm 0.00 in/hr0.0 mm/hr 0.00 in0.0 mm
02:42 AM 54.0°F12.2°C 45.8°F7.7°C 74% 6.9 mph NE11.1 kmh NE 31.5 mph50.7 kmh 30.24 in1024.0 mb 0.00 in0.0 mm 0.00 in/hr0.0 mm/hr 0.00 in0.0 mm
02:57 AM 53.9°F12.2°C 45.6°F7.6°C 74% 12.3 mph ENE19.8 kmh ENE 22.8 mph36.7 kmh 30.24 in1024.0 mb 0.00 in0.0 mm 0.00 in/hr0.0 mm/hr 0.00 in0.0 mm
03:12 AM 53.7°F12.1°C 45.8°F7.7°C 75% 6.9 mph E11.1 kmh E 31.5 mph50.7 kmh 30.23 in1023.7 mb 0.00 in0.0 mm 0.00 in/hr0.0 mm/hr 0.00 in0.0 mm
03:27 AM 53.7°F12.1°C 45.8°F7.7°C 75% 10.5 mph E16.9 kmh E 29.8 mph48.0 kmh 30.23 in1023.7 mb 0.00 in0.0 mm 0.00 in/hr0.0 mm/hr 0.00 in0.0 mm
03:42 AM 53.3°F11.8°C 45.8°F7.7°C 76% 5.1 mph E8.2 kmh E 29.8 mph48.0 kmh 30.24 in1024.0 mb 0.00 in0.0 mm 0.00 in/hr0.0 mm/hr 0.00 in0.0 mm
03:57 AM 53.0°F11.7°C 45.5°F7.5°C 76% 12.3 mph ENE19.8 kmh ENE 28.0 mph45.1 kmh 30.24 in1024.0 mb 0.00 in0.0 mm 0.00 in/hr0.0 mm/hr 0.00 in0.0 mm
04:12 AM 52.6°F11.4°C 45.5°F7.5°C 77% 5.1 mph E8.2 kmh E 28.0 mph45.1 kmh 30.24 in1024.0 mb 0.00 in0.0 mm 0.00 in/hr0.0 mm/hr 0.00 in0.0 mm
04:27 AM 52.2°F11.2°C 45.8°F7.7°C 79% 3.6 mph E5.8 kmh E 26.2 mph42.2 kmh 30.24 in1024.0 mb 0.00 in0.0 mm 0.00 in/hr0.0 mm/hr 0.00 in0.0 mm
04:42 AM 51.9°F11.1°C 45.5°F7.5°C 79% 10.5 mph ENE16.9 kmh ENE 29.8 mph48.0 kmh 30.24 in1024.0 mb 0.00 in0.0 mm 0.00 in/hr0.0 mm/hr 0.00 in0.0 mm
04:57 AM 51.9°F11.1°C 45.5°F7.5°C 79% 8.7 mph NE14.0 kmh NE 24.6 mph39.6 kmh 30.24 in1024.0 mb 0.00 in0.0 mm 0.00 in/hr0.0 mm/hr 0.00 in0.0 mm
05:12 AM 51.9°F11.1°C 45.5°F7.5°C 79% 8.7 mph NE14.0 kmh NE 31.5 mph50.7 kmh 30.24 in1024.0 mb 0.00 in0.0 mm 0.00 in/hr0.0 mm/hr 0.00 in0.0 mm
05:27 AM 51.7°F10.9°C 45.3°F7.4°C 79% 3.6 mph ENE5.8 kmh ENE 24.6 mph39.6 kmh 30.24 in1024.0 mb 0.00 in0.0 mm 0.00 in/hr0.0 mm/hr 0.00 in0.0 mm
05:42 AM 51.7°F10.9°C 45.3°F7.4°C 79% 15.7 mph ENE25.3 kmh ENE 33.3 mph53.6 kmh 30.25 in1024.4 mb 0.00 in0.0 mm 0.00 in/hr0.0 mm/hr 0.00 in0.0 mm
05:57 AM 51.3°F10.7°C 45.3°F7.4°C 80% 8.7 mph NE14.0 kmh NE 38.5 mph62.0 kmh 30.26 in1024.7 mb 0.00 in0.0 mm 0.00 in/hr0.0 mm/hr 0.00 in0.0 mm
06:12 AM 51.0°F10.6°C 45.0°F7.2°C 80% 6.9 mph NE11.1 kmh NE 17.4 mph28.0 kmh 30.26 in1024.7 mb 0.00 in0.0 mm 0.00 in/hr0.0 mm/hr 0.00 in0.0 mm
06:27 AM 50.8°F10.4°C 45.1°F7.3°C 81% Calm Calm 29.8 mph48.0 kmh 30.27 in1025.1 mb 0.00 in0.0 mm 0.00 in/hr0.0 mm/hr 0.00 in0.0 mm
06:42 AM 51.0°F10.6°C 45.0°F7.2°C 80% 3.6 mph NE5.8 kmh NE 28.0 mph45.1 kmh 30.28 in1025.4 mb 0.00 in0.0 mm 0.00 in/hr0.0 mm/hr 0.00 in0.0 mm
06:57 AM 50.6°F10.3°C 43.9°F6.6°C 78% 5.1 mph NE8.2 kmh NE 28.0 mph45.1 kmh 30.28 in1025.4 mb 0.00 in0.0 mm 0.00 in/hr0.0 mm/hr 0.00 in0.0 mm
07:12 AM 50.4°F10.2°C 43.8°F6.6°C 78% 5.1 mph NE8.2 kmh NE 29.8 mph48.0 kmh 30.28 in1025.4 mb 0.00 in0.0 mm 0.00 in/hr0.0 mm/hr 0.00 in0.0 mm
07:27 AM 50.4°F10.2°C 43.4°F6.3°C 77% 1.8 mph ENE2.9 kmh ENE 22.8 mph36.7 kmh 30.30 in1026.1 mb 0.00 in0.0 mm 0.00 in/hr0.0 mm/hr 0.00 in0.0 mm
07:42 AM 50.3°F10.2°C 43.2°F6.2°C 77% 3.6 mph ENE5.8 kmh ENE 24.6 mph39.6 kmh 30.30 in1026.1 mb 0.00 in0.0 mm 0.00 in/hr0.0 mm/hr 0.00 in0.0 mm
07:57 AM 50.1°F10.1°C 42.7°F5.9°C 76% Calm Calm 26.2 mph42.2 kmh 30.31 in1026.4 mb 0.00 in0.0 mm 0.00 in/hr0.0 mm/hr 0.00 in0.0 mm
08:12 AM 49.9°F9.9°C 42.2°F5.7°C 75% 1.8 mph NE2.9 kmh NE 24.6 mph39.6 kmh 30.30 in1026.1 mb 0.00 in0.0 mm 0.00 in/hr0.0 mm/hr 0.00 in0.0 mm
08:27 AM 50.6°F10.3°C 41.8°F5.4°C 72% 10.5 mph ENE16.9 kmh ENE 26.2 mph42.2 kmh 30.32 in1026.8 mb 0.00 in0.0 mm 0.00 in/hr0.0 mm/hr 0.00 in0.0 mm
08:42 AM 52.2°F11.2°C 42.2°F5.7°C 69% 3.6 mph E5.8 kmh E 21.0 mph33.8 kmh 30.32 in1026.8 mb 0.00 in0.0 mm 0.00 in/hr0.0 mm/hr 0.00 in0.0 mm
08:57 AM 52.1°F11.2°C 42.0°F5.6°C 69% 6.9 mph E11.1 kmh E 35.1 mph56.5 kmh 30.32 in1026.8 mb 0.00 in0.0 mm 0.00 in/hr0.0 mm/hr 0.00 in0.0 mm
09:12 AM 52.4°F11.3°C 42.7°F5.9°C 70% 1.8 mph NE2.9 kmh NE 29.8 mph48.0 kmh 30.32 in1026.8 mb 0.00 in0.0 mm 0.00 in/hr0.0 mm/hr 0.00 in0.0 mm
09:27 AM 52.8°F11.6°C 42.3°F5.7°C 68% 3.6 mph ENE5.8 kmh ENE 24.6 mph39.6 kmh 30.33 in1027.1 mb 0.00 in0.0 mm 0.00 in/hr0.0 mm/hr 0.00 in0.0 mm
09:42 AM 53.3°F11.8°C 43.6°F6.4°C 70% 3.6 mph ENE5.8 kmh ENE 19.2 mph30.9 kmh 30.34 in1027.4 mb 0.00 in0.0 mm 0.00 in/hr0.0 mm/hr 0.00 in0.0 mm
09:57 AM 54.0°F12.2°C 44.3°F6.8°C 70% 6.9 mph E11.1 kmh E 31.5 mph50.7 kmh 30.35 in1027.8 mb 0.00 in0.0 mm 0.00 in/hr0.0 mm/hr 0.00 in0.0 mm
10:12 AM 54.6°F12.6°C 45.2°F7.3°C 71% 6.9 mph NE11.1 kmh NE 26.2 mph42.2 kmh 30.35 in1027.8 mb 0.00 in0.0 mm 0.00 in/hr0.0 mm/hr 0.00 in0.0 mm
10:27 AM 55.1°F12.8°C 45.7°F7.6°C 71% 1.8 mph NE2.9 kmh NE 33.3 mph53.6 kmh 30.35 in1027.8 mb 0.00 in0.0 mm 0.00 in/hr0.0 mm/hr 0.00 in0.0 mm
10:42 AM 55.7°F13.2°C 46.6°F8.1°C 72% 3.6 mph ENE5.8 kmh ENE 22.8 mph36.7 kmh 30.36 in1028.1 mb 0.00 in0.0 mm 0.00 in/hr0.0 mm/hr 0.00 in0.0 mm
10:57 AM 55.7°F13.2°C 46.6°F8.1°C 72% 10.5 mph NE16.9 kmh NE 28.0 mph45.1 kmh 30.35 in1027.8 mb 0.00 in0.0 mm 0.00 in/hr0.0 mm/hr 0.00 in0.0 mm
11:12 AM 56.6°F13.7°C 47.9°F8.8°C 73% 8.7 mph NE14.0 kmh NE 33.3 mph53.6 kmh 30.35 in1027.8 mb 0.00 in0.0 mm 0.00 in/hr0.0 mm/hr 0.00 in0.0 mm
11:27 AM 60.0°F15.6°C 48.7°F9.3°C 67% 12.3 mph NE19.8 kmh NE 33.3 mph53.6 kmh 30.35 in1027.8 mb 0.00 in0.0 mm 0.00 in/hr0.0 mm/hr 0.00 in0.0 mm
11:42 AM 61.2°F16.2°C 47.7°F8.7°C 62% 8.7 mph ENE14.0 kmh ENE 33.3 mph53.6 kmh 30.35 in1027.8 mb 0.00 in0.0 mm 0.00 in/hr0.0 mm/hr 0.00 in0.0 mm
11:57 AM 62.0°F16.7°C 48.4°F9.1°C 62% 10.5 mph NE16.9 kmh NE 28.0 mph45.1 kmh 30.35 in1027.8 mb 0.00 in0.0 mm 0.00 in/hr0.0 mm/hr 0.00 in0.0 mm
12:12 PM 62.1°F16.7°C 48.6°F9.2°C 62% 12.3 mph ENE19.8 kmh ENE 28.0 mph45.1 kmh 30.35 in1027.8 mb 0.00 in0.0 mm 0.00 in/hr0.0 mm/hr 0.00 in0.0 mm
12:27 PM 63.4°F17.4°C 49.3°F9.6°C 61% 8.7 mph E14.0 kmh E 33.3 mph53.6 kmh 30.35 in1027.8 mb 0.00 in0.0 mm 0.00 in/hr0.0 mm/hr 0.00 in0.0 mm
12:42 PM 63.2°F17.3°C 50.9°F10.5°C 65% 12.3 mph ENE19.8 kmh ENE 24.6 mph39.6 kmh 30.35 in1027.8 mb 0.00 in0.0 mm 0.00 in/hr0.0 mm/hr 0.00 in0.0 mm
12:57 PM 63.0°F17.2°C 51.6°F10.9°C 67% 5.1 mph E8.2 kmh E 29.8 mph48.0 kmh 30.35 in1027.8 mb 0.00 in0.0 mm 0.00 in/hr0.0 mm/hr 0.00 in0.0 mm
01:12 PM 63.6°F17.6°C 52.6°F11.4°C 68% 8.7 mph ENE14.0 kmh ENE 26.2 mph42.2 kmh 30.34 in1027.4 mb 0.00 in0.0 mm 0.00 in/hr0.0 mm/hr 0.00 in0.0 mm
01:27 PM 63.8°F17.7°C 51.9°F11.1°C 66% 6.9 mph ESE11.1 kmh ESE 28.0 mph45.1 kmh 30.34 in1027.4 mb 0.00 in0.0 mm 0.00 in/hr0.0 mm/hr 0.00 in0.0 mm
01:42 PM 65.9°F18.8°C 52.1°F11.2°C 62% 12.3 mph ENE19.8 kmh ENE 26.2 mph42.2 kmh 30.33 in1027.1 mb 0.00 in0.0 mm 0.00 in/hr0.0 mm/hr 0.00 in0.0 mm
01:57 PM 65.6°F18.7°C 51.3°F10.7°C 61% 10.5 mph ESE16.9 kmh ESE 28.0 mph45.1 kmh 30.33 in1027.1 mb 0.00 in0.0 mm 0.00 in/hr0.0 mm/hr 0.00 in0.0 mm
02:12 PM 66.1°F18.9°C 52.3°F11.3°C 62% 12.3 mph ESE19.8 kmh ESE 28.0 mph45.1 kmh 30.32 in1026.8 mb 0.00 in0.0 mm 0.00 in/hr0.0 mm/hr 0.00 in0.0 mm
02:27 PM 66.5°F19.2°C 52.6°F11.4°C 62% 6.9 mph E11.1 kmh E 33.3 mph53.6 kmh 30.32 in1026.8 mb 0.00 in0.0 mm 0.00 in/hr0.0 mm/hr 0.00 in0.0 mm
02:42 PM 67.0°F19.4°C 52.2°F11.2°C 60% 8.7 mph E14.0 kmh E 33.3 mph53.6 kmh 30.32 in1026.8 mb 0.00 in0.0 mm 0.00 in/hr0.0 mm/hr 0.00 in0.0 mm
02:57 PM 66.6°F19.2°C 52.8°F11.6°C 62% 8.7 mph ENE14.0 kmh ENE 31.5 mph50.7 kmh 30.32 in1026.8 mb 0.00 in0.0 mm 0.00 in/hr0.0 mm/hr 0.00 in0.0 mm
03:12 PM 67.4°F19.7°C 52.5°F11.4°C 60% 6.9 mph E11.1 kmh E 29.8 mph48.0 kmh 30.31 in1026.4 mb 0.00 in0.0 mm 0.00 in/hr0.0 mm/hr 0.00 in0.0 mm
03:27 PM 67.5°F19.7°C 52.2°F11.2°C 59% 10.5 mph NE16.9 kmh NE 28.0 mph45.1 kmh 30.31 in1026.4 mb 0.00 in0.0 mm 0.00 in/hr0.0 mm/hr 0.00 in0.0 mm
03:42 PM 66.6°F19.2°C 51.8°F11.0°C 60% 14.1 mph E22.7 kmh E 28.0 mph45.1 kmh 30.29 in1025.7 mb 0.00 in0.0 mm 0.00 in/hr0.0 mm/hr 0.00 in0.0 mm
03:57 PM 67.0°F19.4°C 51.7°F10.9°C 59% 12.3 mph E19.8 kmh E 35.1 mph56.5 kmh 30.29 in1025.7 mb 0.00 in0.0 mm 0.00 in/hr0.0 mm/hr 0.00 in0.0 mm
04:12 PM 66.5°F19.2°C 51.7°F10.9°C 60% 15.7 mph E25.3 kmh E 33.3 mph53.6 kmh 30.28 in1025.4 mb 0.00 in0.0 mm 0.00 in/hr0.0 mm/hr 0.00 in0.0 mm
04:27 PM 65.9°F18.8°C 50.7°F10.4°C 59% 12.3 mph ENE19.8 kmh ENE 38.5 mph62.0 kmh 30.27 in1025.1 mb 0.00 in0.0 mm 0.00 in/hr0.0 mm/hr 0.00 in0.0 mm
04:42 PM 65.9°F18.8°C 51.2°F10.7°C 60% 12.3 mph E19.8 kmh E 36.7 mph59.1 kmh 30.27 in1025.1 mb 0.00 in0.0 mm 0.00 in/hr0.0 mm/hr 0.00 in0.0 mm
04:57 PM 65.7°F18.7°C 51.5°F10.8°C 61% 15.7 mph ENE25.3 kmh ENE 35.1 mph56.5 kmh 30.26 in1024.7 mb 0.00 in0.0 mm 0.00 in/hr0.0 mm/hr 0.00 in0.0 mm
05:12 PM 65.6°F18.7°C 52.2°F11.2°C 63% 15.7 mph E25.3 kmh E 45.4 mph73.1 kmh 30.27 in1025.1 mb 0.00 in0.0 mm 0.00 in/hr0.0 mm/hr 0.00 in0.0 mm
05:27 PM 65.0°F18.3°C 51.7°F10.9°C 63% 12.3 mph ENE19.8 kmh ENE 35.1 mph56.5 kmh 30.27 in1025.1 mb 0.00 in0.0 mm 0.00 in/hr0.0 mm/hr 0.00 in0.0 mm
05:42 PM 64.7°F18.2°C 51.8°F11.0°C 64% 14.1 mph E22.7 kmh E 38.5 mph62.0 kmh 30.27 in1025.1 mb 0.00 in0.0 mm 0.00 in/hr0.0 mm/hr 0.00 in0.0 mm
05:57 PM 64.1°F17.8°C 51.3°F10.7°C 64% 8.7 mph E14.0 kmh E 35.1 mph56.5 kmh 30.28 in1025.4 mb 0.00 in0.0 mm 0.00 in/hr0.0 mm/hr 0.00 in0.0 mm
06:12 PM 63.6°F17.6°C 51.3°F10.7°C 65% 10.5 mph E16.9 kmh E 33.3 mph53.6 kmh 30.28 in1025.4 mb 0.00 in0.0 mm 0.00 in/hr0.0 mm/hr 0.00 in0.0 mm
06:27 PM 63.2°F17.3°C 50.9°F10.5°C 65% 10.5 mph E16.9 kmh E 42.1 mph67.8 kmh 30.28 in1025.4 mb 0.00 in0.0 mm 0.00 in/hr0.0 mm/hr 0.00 in0.0 mm
06:42 PM 63.0°F17.2°C 51.6°F10.9°C 67% 10.5 mph ENE16.9 kmh ENE 35.1 mph56.5 kmh 30.28 in1025.4 mb 0.00 in0.0 mm 0.00 in/hr0.0 mm/hr 0.00 in0.0 mm
06:57 PM 62.3°F16.8°C 51.8°F11.0°C 69% 14.1 mph ENE22.7 kmh ENE 31.5 mph50.7 kmh 30.27 in1025.1 mb 0.00 in0.0 mm 0.00 in/hr0.0 mm/hr 0.00 in0.0 mm
07:12 PM 62.1°F16.7°C 52.0°F11.1°C 70% 14.1 mph E22.7 kmh E 38.5 mph62.0 kmh 30.27 in1025.1 mb 0.00 in0.0 mm 0.00 in/hr0.0 mm/hr 0.00 in0.0 mm
07:27 PM 62.0°F16.7°C 51.8°F11.0°C 70% 5.1 mph NE8.2 kmh NE 35.1 mph56.5 kmh 30.26 in1024.7 mb 0.00 in0.0 mm 0.00 in/hr0.0 mm/hr 0.00 in0.0 mm
07:42 PM 61.8°F16.6°C 51.7°F10.9°C 70% 8.7 mph E14.0 kmh E 28.0 mph45.1 kmh 30.26 in1024.7 mb 0.00 in0.0 mm 0.00 in/hr0.0 mm/hr 0.00 in0.0 mm
07:57 PM 61.6°F16.4°C 51.5°F10.8°C 70% 6.9 mph E11.1 kmh E 36.7 mph59.1 kmh 30.27 in1025.1 mb 0.00 in0.0 mm 0.00 in/hr0.0 mm/hr 0.00 in0.0 mm
08:12 PM 61.6°F16.4°C 51.5°F10.8°C 70% 8.7 mph E14.0 kmh E 29.8 mph48.0 kmh 30.27 in1025.1 mb 0.00 in0.0 mm 0.00 in/hr0.0 mm/hr 0.00 in0.0 mm
08:27 PM 61.8°F16.6°C 51.7°F10.9°C 70% 10.5 mph ENE16.9 kmh ENE 38.5 mph62.0 kmh 30.28 in1025.4 mb 0.00 in0.0 mm 0.00 in/hr0.0 mm/hr 0.00 in0.0 mm
08:42 PM 61.6°F16.4°C 51.5°F10.8°C 70% 10.5 mph E16.9 kmh E 36.7 mph59.1 kmh 30.27 in1025.1 mb 0.00 in0.0 mm 0.00 in/hr0.0 mm/hr 0.00 in0.0 mm
08:57 PM 61.6°F16.4°C 51.9°F11.1°C 71% 6.9 mph E11.1 kmh E 33.3 mph53.6 kmh 30.28 in1025.4 mb 0.00 in0.0 mm 0.00 in/hr0.0 mm/hr 0.00 in0.0 mm
09:12 PM 61.8°F16.6°C 52.9°F11.6°C 73% 10.5 mph E16.9 kmh E 31.5 mph50.7 kmh 30.29 in1025.7 mb 0.00 in0.0 mm 0.00 in/hr0.0 mm/hr 0.00 in0.0 mm
09:27 PM 61.8°F16.6°C 52.5°F11.4°C 72% 5.1 mph ENE8.2 kmh ENE 33.3 mph53.6 kmh 30.29 in1025.7 mb 0.00 in0.0 mm 0.00 in/hr0.0 mm/hr 0.00 in0.0 mm
09:42 PM 61.8°F16.6°C 52.5°F11.4°C 72% 10.5 mph E16.9 kmh E 38.5 mph62.0 kmh 30.28 in1025.4 mb 0.00 in0.0 mm 0.00 in/hr0.0 mm/hr 0.00 in0.0 mm
09:57 PM 62.0°F16.7°C 52.2°F11.2°C 71% 8.7 mph E14.0 kmh E 31.5 mph50.7 kmh 30.29 in1025.7 mb 0.00 in0.0 mm 0.00 in/hr0.0 mm/hr 0.00 in0.0 mm
10:12 PM 62.0°F16.7°C 52.2°F11.2°C 71% 3.6 mph E5.8 kmh E 29.8 mph48.0 kmh 30.28 in1025.4 mb 0.00 in0.0 mm 0.00 in/hr0.0 mm/hr 0.00 in0.0 mm
10:27 PM 62.0°F16.7°C 51.8°F11.0°C 70% 15.7 mph E25.3 kmh E 33.3 mph53.6 kmh 30.28 in1025.4 mb 0.00 in0.0 mm 0.00 in/hr0.0 mm/hr 0.00 in0.0 mm
10:42 PM 62.0°F16.7°C 53.0°F11.7°C 73% 6.9 mph E11.1 kmh E 35.1 mph56.5 kmh 30.28 in1025.4 mb 0.00 in0.0 mm 0.00 in/hr0.0 mm/hr 0.00 in0.0 mm
10:57 PM 62.1°F16.7°C 53.2°F11.8°C 73% 10.5 mph ESE16.9 kmh ESE 26.2 mph42.2 kmh 30.27 in1025.1 mb 0.00 in0.0 mm 0.00 in/hr0.0 mm/hr 0.00 in0.0 mm
11:12 PM 62.1°F16.7°C 53.2°F11.8°C 73% 12.3 mph E19.8 kmh E 29.8 mph48.0 kmh 30.26 in1024.7 mb 0.00 in0.0 mm 0.00 in/hr0.0 mm/hr 0.00 in0.0 mm
11:27 PM 62.1°F16.7°C 53.6°F12.0°C 74% 14.1 mph E22.7 kmh E 36.7 mph59.1 kmh 30.26 in1024.7 mb 0.00 in0.0 mm 0.00 in/hr0.0 mm/hr 0.00 in0.0 mm
11:42 PM 62.0°F16.7°C 53.8°F12.1°C 75% 15.7 mph E25.3 kmh E 31.5 mph50.7 kmh 30.24 in1024.0 mb 0.00 in0.0 mm 0.00 in/hr0.0 mm/hr 0.00 in0.0 mm
11:57 PM 62.0°F16.7°C 54.2°F12.3°C 76% 6.9 mph E11.1 kmh E 31.5 mph50.7 kmh 30.25 in1024.4 mb 0.00 in0.0 mm 0.00 in/hr0.0 mm/hr 0.00 in0.0 mm